Time;durP1;ratioP1;P1;durP2;ratioP2;P2;SDS_P1;SDS_P2;PMS_P1;PMS_P2;Temp;Humidity;BMP_temperature;BMP_pressure;BME280_temperature;BME280_humidity;BME280_pressure;Samples;Min_cycle;Max_cycle;Signal;HPM_P1;HPM_P2
2022/03/14 00:00:42;;;;;;;18.10;8.68;;;;;;;5.70;51.87;98801.53;4993958;28;20061;-72
2022/03/14 00:03:07;;;;;;;15.63;8.02;;;;;;;4.99;52.03;98712.00;4992306;28;20018;-71
2022/03/14 00:05:32;;;;;;;20.55;8.70;;;;;;;5.51;50.99;98793.03;4978980;28;20106;-73
2022/03/14 00:08:01;;;;;;;21.40;9.80;;;;;;;5.63;51.21;98810.44;4993411;28;20042;-73
2022/03/14 00:10:26;;;;;;;18.40;9.85;;;;;;;5.37;52.12;98781.16;4992058;28;20090;-71
2022/03/14 00:12:56;;;;;;;18.50;10.27;;;;;;;5.56;52.49;98822.91;4996162;28;20038;-74
2022/03/14 00:15:22;;;;;;;18.98;9.82;;;;;;;5.46;51.81;98823.06;4994135;28;20018;-71
2022/03/14 00:17:49;;;;;;;20.15;9.25;;;;;;;5.36;52.04;98812.50;4985864;28;20396;-71
2022/03/14 00:20:15;;;;;;;17.92;9.13;;;;;;;5.50;51.49;98853.91;4992663;28;20126;-71
2022/03/14 00:22:41;;;;;;;12.30;6.93;;;;;;;5.10;51.11;98833.31;4980245;28;20061;-71
2022/03/14 00:25:08;;;;;;;14.27;7.32;;;;;;;4.79;52.96;98842.00;4995769;28;20246;-71
2022/03/14 00:27:37;;;;;;;12.05;6.97;;;;;;;4.57;53.61;98855.03;4985339;28;20089;-72
2022/03/14 00:30:09;;;;;;;16.30;7.32;;;;;;;4.42;53.77;98845.09;4989502;28;20030;-72
2022/03/14 00:32:35;;;;;;;14.98;8.38;;;;;;;4.73;52.76;98886.38;4991762;28;20030;-72
2022/03/14 00:35:02;;;;;;;15.82;7.80;;;;;;;4.77;52.55;98898.47;4990440;28;20029;-72
2022/03/14 00:37:28;;;;;;;17.08;8.00;;;;;;;4.58;53.03;98862.09;4997416;28;20030;-73
2022/03/14 00:39:53;;;;;;;14.63;7.43;;;;;;;4.89;53.49;98912.38;4981908;28;20022;-72
2022/03/14 00:42:21;;;;;;;12.68;7.57;;;;;;;4.78;53.95;98900.13;4985190;28;20037;-72
2022/03/14 00:44:47;;;;;;;15.95;7.07;;;;;;;5.11;53.09;98924.34;4997112;28;20026;-73
2022/03/14 00:47:13;;;;;;;18.67;8.77;;;;;;;5.36;52.43;98941.28;4980465;28;20054;-72
2022/03/14 00:49:39;;;;;;;18.33;8.55;;;;;;;5.56;51.79;98925.69;4995653;28;20041;-72
2022/03/14 00:52:04;;;;;;;19.13;8.88;;;;;;;5.26;51.96;98903.88;4974348;28;20031;-73
2022/03/14 00:54:30;;;;;;;20.73;9.63;;;;;;;5.65;52.12;98953.38;4976987;28;20068;-72
2022/03/14 00:56:55;;;;;;;17.75;8.80;;;;;;;5.68;52.19;98961.91;4985549;28;20022;-72
2022/03/14 00:59:21;;;;;;;22.75;9.70;;;;;;;5.48;52.09;98958.75;4987875;28;20023;-72
2022/03/14 01:01:46;;;;;;;17.48;8.25;;;;;;;5.48;51.48;98958.75;4982813;28;20389;-71
2022/03/14 01:04:12;;;;;;;18.20;8.57;;;;;;;5.55;51.25;98968.78;4978040;28;20057;-71
2022/03/14 01:06:37;;;;;;;17.33;9.05;;;;;;;5.71;51.74;98984.91;4986958;28;20030;-71
2022/03/14 01:09:03;;;;;;;17.60;8.07;;;;;;;5.67;51.25;98991.63;4994356;28;20395;-73
2022/03/14 01:11:28;;;;;;;14.68;8.57;;;;;;;5.62;51.63;99002.84;4977381;28;20482;-73
2022/03/14 01:13:55;;;;;;;18.10;8.95;;;;;;;5.60;51.94;98986.06;4988240;28;20030;-72
2022/03/14 01:16:20;;;;;;;17.48;8.15;;;;;;;5.62;51.44;99015.44;4984968;28;20106;-72
2022/03/14 01:18:46;;;;;;;16.00;8.35;;;;;;;5.81;50.79;99031.22;4990737;28;20063;-72
2022/03/14 01:21:11;;;;;;;18.10;9.32;;;;;;;5.70;50.17;98976.00;4973821;28;20053;-73
2022/03/14 01:23:36;;;;;;;20.35;9.65;;;;;;;5.99;50.16;99008.75;4974377;28;20033;-71
2022/03/14 01:26:02;;;;;;;27.42;10.27;;;;;;;6.08;50.96;99005.91;4993660;28;20449;-72
2022/03/14 01:28:28;;;;;;;21.40;9.73;;;;;;;6.55;50.84;99023.13;4977304;28;20390;-72
2022/03/14 01:30:53;;;;;;;20.10;9.75;;;;;;;6.73;51.45;99039.00;4977578;28;20026;-72
2022/03/14 01:33:19;;;;;;;20.90;10.50;;;;;;;6.69;50.57;99024.25;4978309;28;20115;-72
2022/03/14 01:35:45;;;;;;;17.00;9.20;;;;;;;6.74;51.09;99038.84;4990949;28;20513;-70
2022/03/14 01:38:11;;;;;;;19.58;9.93;;;;;;;6.74;52.22;99052.28;4993650;28;20054;-70
2022/03/14 01:40:36;;;;;;;19.88;10.60;;;;;;;6.89;52.47;99056.94;4984995;28;20030;-70
2022/03/14 01:43:02;;;;;;;22.48;11.23;;;;;;;7.19;53.34;99056.16;4991885;28;20450;-70
2022/03/14 01:45:27;;;;;;;20.73;10.57;;;;;;;7.12;53.36;99046.25;4977203;28;20397;-71
2022/03/14 01:47:53;;;;;;;21.90;10.70;;;;;;;7.32;52.69;99085.19;4987738;28;20520;-71
2022/03/14 01:50:19;;;;;;;21.83;11.02;;;;;;;7.33;53.76;99097.63;4999795;28;20033;-71
2022/03/14 01:52:45;;;;;;;19.92;10.38;;;;;;;7.38;53.85;99103.31;4985228;28;20090;-71
2022/03/14 01:55:13;;;;;;;16.75;9.52;;;;;;;7.51;53.32;99110.00;4976742;28;20027;-72
2022/03/14 01:57:39;;;;;;;21.40;10.43;;;;;;;7.38;54.41;99106.00;4984179;28;20029;-71
2022/03/14 02:00:08;;;;;;;20.65;10.57;;;;;;;7.43;58.99;99116.25;4996905;28;20073;-71
2022/03/14 02:02:34;;;;;;;22.47;10.40;;;;;;;7.31;58.97;99109.56;4984035;28;20026;-69
2022/03/14 02:04:59;;;;;;;19.02;9.90;;;;;;;7.31;60.85;99110.44;4994733;28;20097;-72
2022/03/14 02:07:26;;;;;;;19.48;9.65;;;;;;;7.77;69.55;99120.47;4996470;28;20048;-73
2022/03/14 02:09:51;;;;;;;16.45;8.32;;;;;;;7.96;74.27;99132.63;4980272;28;20030;-72
2022/03/14 02:12:17;;;;;;;10.57;5.20;;;;;;;8.30;75.71;99129.50;4994414;28;20022;-72
2022/03/14 02:14:42;;;;;;;8.65;4.20;;;;;;;8.70;75.97;99166.13;4994852;28;20030;-73
2022/03/14 02:17:15;;;;;;;6.03;3.22;;;;;;;8.77;75.80;99172.44;4978821;28;20143;-72
2022/03/14 02:19:42;;;;;;;5.50;2.83;;;;;;;8.82;76.25;99188.09;4980420;28;20029;-72
2022/03/14 02:22:12;;;;;;;2.67;1.63;;;;;;;8.83;76.02;99197.88;4998198;28;20074;-73
2022/03/14 02:24:39;;;;;;;2.95;1.00;;;;;;;8.80;76.72;99211.72;4981951;28;20034;-72
2022/03/14 02:27:04;;;;;;;2.50;1.50;;;;;;;8.73;77.07;99197.31;4976708;28;20018;-72
2022/03/14 02:29:30;;;;;;;3.58;1.45;;;;;;;8.61;77.28;99185.25;4997504;28;20034;-72
2022/03/14 02:31:55;;;;;;;3.03;1.60;;;;;;;8.69;77.78;99210.28;4981313;28;20024;-72
2022/03/14 02:34:21;;;;;;;1.52;1.08;;;;;;;8.65;77.82;99216.25;4996000;28;20022;-72
2022/03/14 02:36:46;;;;;;;4.03;1.58;;;;;;;8.52;78.37;99209.59;4995835;28;20045;-72
2022/03/14 02:39:12;;;;;;;2.85;1.40;;;;;;;8.54;78.82;99230.97;4979525;28;20033;-72
2022/03/14 02:41:37;;;;;;;1.90;1.27;;;;;;;8.62;79.80;99252.53;4996708;28;20035;-72
2022/03/14 02:44:08;;;;;;;1.77;0.80;;;;;;;8.58;80.83;99255.75;4986034;28;20482;-71
2022/03/14 02:46:34;;;;;;;2.17;0.77;;;;;;;8.45;81.68;99237.47;4986403;28;20106;-73
2022/03/14 02:49:00;;;;;;;1.13;0.90;;;;;;;8.49;83.19;99263.91;4977649;28;20030;-70
2022/03/14 02:51:26;;;;;;;1.27;0.68;;;;;;;8.43;83.82;99261.88;4993323;28;20038;-70
2022/03/14 02:53:51;;;;;;;1.40;0.80;;;;;;;8.13;85.55;99232.06;4995044;28;20014;-70
2022/03/14 02:56:17;;;;;;;2.53;0.98;;;;;;;8.09;87.42;99260.38;4972461;28;20086;-70
2022/03/14 02:58:43;;;;;;;1.27;0.95;;;;;;;8.16;88.72;99292.03;4989523;28;20049;-70
2022/03/14 03:01:09;;;;;;;1.52;1.00;;;;;;;8.09;89.59;99281.09;4980206;28;20026;-73
2022/03/14 03:03:34;;;;;;;1.67;1.13;;;;;;;7.92;91.08;99280.34;4967260;28;20397;-73
2022/03/14 03:06:00;;;;;;;4.82;1.02;;;;;;;7.95;91.45;99304.22;4994941;28;20034;-73
2022/03/14 03:08:25;;;;;;;1.58;0.85;;;;;;;7.94;91.37;99291.78;4976154;28;20117;-71
2022/03/14 03:10:51;;;;;;;3.30;1.10;;;;;;;7.94;91.55;99293.63;4991679;28;20022;-71
2022/03/14 03:13:16;;;;;;;2.95;1.20;;;;;;;7.82;91.38;99258.97;4987267;28;20027;-70
2022/03/14 03:15:41;;;;;;;4.22;1.17;;;;;;;7.96;92.04;99295.13;4975996;28;20022;-71
2022/03/14 03:18:07;;;;;;;1.73;1.00;;;;;;;8.08;91.73;99306.38;4992112;28;20026;-71
2022/03/14 03:20:32;;;;;;;2.58;1.20;;;;;;;8.03;92.98;99319.53;4994968;28;20040;-71
2022/03/14 03:22:58;;;;;;;1.90;1.23;;;;;;;7.76;93.52;99275.00;4991218;28;20113;-70
2022/03/14 03:25:23;;;;;;;1.70;1.27;;;;;;;7.88;95.46;99314.00;4982545;28;20033;-70
2022/03/14 03:27:49;;;;;;;2.15;1.25;;;;;;;7.61;98.13;99293.72;5010792;28;20094;-70
2022/03/14 03:30:15;;;;;;;1.50;1.00;;;;;;;7.69;99.56;99316.09;4993550;28;20022;-71
2022/03/14 03:32:40;;;;;;;1.75;1.10;;;;;;;7.44;100.00;99307.22;5012417;28;20030;-70
2022/03/14 03:35:06;;;;;;;3.88;1.13;;;;;;;7.59;100.00;99339.66;4994876;28;20027;-71
2022/03/14 03:37:31;;;;;;;1.92;1.38;;;;;;;7.44;100.00;99328.78;4993900;28;20073;-70
2022/03/14 03:39:57;;;;;;;1.73;1.00;;;;;;;7.45;100.00;99348.44;4999301;28;20082;-71
2022/03/14 03:42:22;;;;;;;1.67;1.10;;;;;;;7.43;100.00;99363.94;4982755;28;20025;-71
2022/03/14 03:44:47;;;;;;;1.85;1.20;;;;;;;7.32;100.00;99359.72;4984436;28;20062;-71
2022/03/14 03:47:13;;;;;;;2.88;1.20;;;;;;;7.15;100.00;99358.03;4987170;28;20510;-70
2022/03/14 03:49:38;;;;;;;2.20;1.40;;;;;;;7.10;100.00;99355.00;4980357;28;20030;-70
2022/03/14 03:52:04;;;;;;;1.83;1.23;;;;;;;7.14;100.00;99372.50;4983863;28;20510;-71
2022/03/14 03:54:30;;;;;;;2.47;1.45;;;;;;;7.16;100.00;99379.41;4986278;28;20037;-71
2022/03/14 03:56:55;;;;;;;2.38;1.30;;;;;;;7.15;100.00;99391.19;4985790;28;20408;-71
2022/03/14 03:59:21;;;;;;;1.60;1.17;;;;;;;7.18;100.00;99396.25;4967676;28;20034;-71
2022/03/14 04:01:46;;;;;;;1.65;1.30;;;;;;;7.00;100.00;99371.31;4988362;28;20069;-71
2022/03/14 04:04:12;;;;;;;2.38;1.15;;;;;;;7.08;100.00;99395.56;4976120;28;20030;-71
2022/03/14 04:06:41;;;;;;;2.88;1.50;;;;;;;7.00;100.00;99382.94;4979448;28;20101;-71
2022/03/14 04:09:07;;;;;;;1.77;1.13;;;;;;;7.13;100.00;99397.75;4975074;28;20105;-71
2022/03/14 04:11:33;;;;;;;1.88;1.23;;;;;;;6.91;100.00;99366.94;4962067;28;20516;-71
2022/03/14 04:14:00;;;;;;;5.63;1.45;;;;;;;6.97;100.00;99385.13;4988143;28;20051;-71
2022/03/14 04:16:26;;;;;;;2.78;1.35;;;;;;;7.13;100.00;99413.91;4974517;28;20089;-71
2022/03/14 04:18:53;;;;;;;1.88;1.35;;;;;;;7.16;100.00;99418.94;4992997;28;20520;-71
2022/03/14 04:21:18;;;;;;;1.85;1.08;;;;;;;6.80;100.00;99371.63;5036608;23;20035;-73
2022/03/14 04:23:43;;;;;;;1.80;1.17;;;;;;;7.07;100.00;99407.31;4988505;28;20394;-73
2022/03/14 04:26:09;;;;;;;2.00;1.35;;;;;;;7.20;100.00;99426.53;4994569;28;20021;-71
2022/03/14 04:28:36;;;;;;;1.77;1.20;;;;;;;7.05;100.00;99401.28;5005546;28;20026;-72
2022/03/14 04:31:08;;;;;;;2.50;1.40;;;;;;;7.13;100.00;99411.19;5001283;28;20026;-73
2022/03/14 04:33:34;;;;;;;1.88;1.25;;;;;;;7.15;100.00;99426.19;5001060;28;20481;-73
2022/03/14 04:35:59;;;;;;;2.05;1.45;;;;;;;7.12;100.00;99442.63;5003595;28;20080;-74
2022/03/14 04:38:28;;;;;;;2.50;1.33;;;;;;;7.08;100.00;99446.66;5009410;28;20584;-74
2022/03/14 04:40:54;;;;;;;2.45;1.33;;;;;;;6.98;100.00;99435.22;5007126;28;20096;-75
2022/03/14 04:43:24;;;;;;;1.95;1.40;;;;;;;6.96;100.00;99427.28;5009794;28;20029;-74
2022/03/14 04:45:49;;;;;;;2.03;1.50;;;;;;;7.09;100.00;99445.66;4994233;28;20030;-75
2022/03/14 04:48:16;;;;;;;2.50;1.48;;;;;;;6.97;100.00;99426.31;5004925;28;20033;-74
2022/03/14 04:50:42;;;;;;;2.67;1.23;;;;;;;7.15;100.00;99457.59;5009432;28;20064;-74
2022/03/14 04:53:08;;;;;;;2.17;1.45;;;;;;;7.09;100.00;99464.50;4990941;28;20494;-74
2022/03/14 04:55:35;;;;;;;3.67;1.50;;;;;;;7.00;100.00;99466.31;5009403;28;20030;-77
2022/03/14 04:58:04;;;;;;;2.58;1.40;;;;;;;7.08;100.00;99487.03;4997213;28;20484;-74
2022/03/14 05:00:30;;;;;;;4.78;1.60;;;;;;;7.06;100.00;99489.03;5012209;28;20026;-71
2022/03/14 05:03:06;;;;;;;1.92;1.17;;;;;;;6.94;100.00;99479.56;5013441;28;20049;-74
2022/03/14 05:05:32;;;;;;;1.90;1.20;;;;;;;6.98;100.00;99480.94;5004084;28;20406;-74
2022/03/14 05:07:57;;;;;;;3.80;1.27;;;;;;;7.02;100.00;99495.72;4988396;28;20034;-69
2022/03/14 05:10:23;;;;;;;1.85;1.15;;;;;;;7.07;100.00;99504.16;5001749;28;20033;-70
2022/03/14 05:12:49;;;;;;;2.55;1.30;;;;;;;7.13;100.00;99503.53;5002377;28;20030;-71
2022/03/14 05:15:18;;;;;;;2.58;1.38;;;;;;;6.96;100.00;99474.88;4992796;28;20374;-73
2022/03/14 05:17:47;;;;;;;1.17;0.80;;;;;;;7.12;100.00;99503.69;5004243;28;20026;-73
2022/03/14 05:20:12;;;;;;;;;;;;;;;7.06;100.00;99507.88;5007559;28;20040;-76
2022/03/14 05:22:46;;;;;;;1.58;1.10;;;;;;;7.04;100.00;99501.81;5021304;28;19913;-76
2022/03/14 05:25:12;;;;;;;4.00;1.20;;;;;;;7.10;100.00;99503.84;5011084;28;20125;-75
2022/03/14 05:27:39;;;;;;;2.00;1.10;;;;;;;6.95;100.00;99494.72;4995695;28;20097;-76
2022/03/14 05:30:08;;;;;;;2.42;1.30;;;;;;;7.04;100.00;99512.56;4990964;28;20079;-76
2022/03/14 05:32:36;;;;;;;2.10;1.20;;;;;;;6.97;100.00;99506.19;4992586;28;20503;-81
2022/03/14 05:35:06;;;;;;;3.08;1.58;;;;;;;6.94;100.00;99517.22;4990585;28;20364;-82
2022/03/14 05:37:32;;;;;;;1.70;1.25;;;;;;;6.73;100.00;99488.94;5010990;28;20036;-76
2022/03/14 05:39:57;;;;;;;7.85;1.63;;;;;;;6.75;100.00;99502.22;5022275;28;20034;-77
2022/03/14 05:42:23;;;;;;;3.78;2.03;;;;;;;6.71;100.00;99506.25;5006659;28;20022;-78
2022/03/14 05:44:49;;;;;;;6.78;2.83;;;;;;;6.73;100.00;99521.22;4992324;28;20076;-74
2022/03/14 05:47:14;;;;;;;3.75;2.17;;;;;;;6.86;100.00;99530.66;5000169;28;20018;-78
2022/03/14 05:49:39;;;;;;;6.90;2.20;;;;;;;6.64;100.00;99511.41;5000353;28;20034;-77
2022/03/14 05:52:06;;;;;;;5.90;2.00;;;;;;;6.58;100.00;99498.63;5010223;28;20026;-77
2022/03/14 05:54:34;;;;;;;2.75;1.30;;;;;;;6.64;100.00;99499.81;5002988;28;20121;-78
2022/03/14 05:56:59;;;;;;;1.77;0.93;;;;;;;6.93;100.00;99543.31;4991883;28;20081;-72
2022/03/14 05:59:25;;;;;;;3.20;1.23;;;;;;;7.02;100.00;99563.88;5008980;28;20030;-73
2022/03/14 06:01:50;;;;;;;2.78;1.38;;;;;;;6.88;100.00;99550.16;5018775;28;20030;-79
2022/03/14 06:04:16;;;;;;;3.58;1.08;;;;;;;7.04;100.00;99577.13;5018921;28;20100;-76
2022/03/14 06:06:42;;;;;;;2.25;1.05;;;;;;;6.70;100.00;99532.25;4998928;28;20022;-79
2022/03/14 06:09:07;;;;;;;3.10;1.00;;;;;;;7.12;100.00;99590.63;5017055;28;20025;-78
2022/03/14 06:11:33;;;;;;;2.42;1.40;;;;;;;6.87;100.00;99575.41;5000872;28;20030;-78
2022/03/14 06:13:58;;;;;;;3.92;1.33;;;;;;;6.42;100.00;99498.50;5001998;28;20032;-78
2022/03/14 06:16:25;;;;;;;4.63;1.55;;;;;;;6.93;100.00;99577.44;5004135;28;20481;-77
2022/03/14 06:18:50;;;;;;;2.70;1.45;;;;;;;7.12;100.00;99622.91;4999519;28;20026;-72
2022/03/14 06:21:16;;;;;;;3.25;1.13;;;;;;;7.16;100.00;99618.06;4981457;28;20030;-70
2022/03/14 06:23:42;;;;;;;2.25;1.02;;;;;;;7.04;100.00;99609.44;5007226;28;20104;-78
2022/03/14 06:26:07;;;;;;;1.75;1.00;;;;;;;6.99;100.00;99598.31;5016874;28;20030;-74
2022/03/14 06:28:32;;;;;;;2.25;1.00;;;;;;;7.02;100.00;99608.72;5009011;28;20507;-72
2022/03/14 06:30:58;;;;;;;2.78;0.93;;;;;;;7.02;100.00;99592.59;5007137;28;20037;-71
2022/03/14 06:33:23;;;;;;;1.95;0.70;;;;;;;7.08;100.00;99616.19;5016632;28;20421;-76
2022/03/14 06:35:49;;;;;;;3.28;0.90;;;;;;;7.35;100.00;99628.56;4996884;28;20018;-70
2022/03/14 06:38:15;;;;;;;1.67;0.80;;;;;;;7.21;100.00;99638.09;5023507;28;20025;-69
2022/03/14 06:40:41;;;;;;;7.75;1.50;;;;;;;7.29;100.00;99631.91;5016974;28;20551;-73
2022/03/14 06:43:06;;;;;;;5.75;1.15;;;;;;;7.29;98.94;99623.00;5018557;28;20026;-74
2022/03/14 06:45:32;;;;;;;5.97;0.98;;;;;;;7.34;96.86;99636.81;4986484;28;20030;-74
2022/03/14 06:47:58;;;;;;;4.07;0.70;;;;;;;7.34;97.27;99644.91;5005246;28;20030;-78
2022/03/14 06:50:23;;;;;;;4.68;1.17;;;;;;;7.25;97.16;99639.44;5013888;28;20026;-77
2022/03/14 06:52:49;;;;;;;4.40;1.00;;;;;;;7.33;97.54;99646.72;5001795;28;20093;-75
2022/03/14 06:55:15;;;;;;;5.38;1.23;;;;;;;7.43;95.72;99641.22;5010165;28;20026;-81
2022/03/14 06:57:40;;;;;;;5.78;1.00;;;;;;;7.47;94.39;99640.75;4995006;28;20029;-74
2022/03/14 07:00:10;;;;;;;3.22;0.90;;;;;;;7.64;94.36;99665.03;5002838;28;20065;-76
2022/03/14 07:02:40;;;;;;;4.70;0.98;;;;;;;7.73;93.14;99661.38;4994908;28;20026;-70
2022/03/14 07:05:06;;;;;;;7.47;0.93;;;;;;;7.97;92.18;99668.66;5006331;28;20040;-69
2022/03/14 07:07:32;;;;;;;5.22;1.10;;;;;;;7.97;90.26;99674.03;5010980;28;20072;-79
2022/03/14 07:09:57;;;;;;;40.35;4.15;;;;;;;7.93;88.87;99653.81;5003314;28;20127;-78
2022/03/14 07:12:23;;;;;;;5.95;0.73;;;;;;;7.98;87.15;99659.56;5007544;28;20043;-80
2022/03/14 07:14:48;;;;;;;7.80;1.10;;;;;;;8.00;86.67;99665.63;5003733;28;20033;-80
2022/03/14 07:17:13;;;;;;;4.38;0.90;;;;;;;7.87;85.86;99649.09;5011033;28;20025;-82
2022/03/14 07:19:45;;;;;;;3.80;0.70;;;;;;;8.07;85.71;99682.81;4999391;28;20022;-75
2022/03/14 07:22:10;;;;;;;2.10;0.60;;;;;;;8.09;84.98;99667.31;5015516;28;20030;-79
2022/03/14 07:24:36;;;;;;;6.05;0.80;;;;;;;9.03;83.89;99693.97;4990472;28;20118;-75
2022/03/14 07:27:01;;;;;;;3.90;0.73;;;;;;;10.26;74.49;99684.31;4997457;28;20023;-78
2022/03/14 07:29:26;;;;;;;7.65;1.33;;;;;;;9.27;76.54;99688.50;4997217;28;20034;-79
2022/03/14 07:31:52;;;;;;;7.65;1.10;;;;;;;8.49;76.95;99648.69;4992962;28;20387;-74
2022/03/14 07:34:17;;;;;;;6.45;0.80;;;;;;;8.92;78.40;99706.81;5011874;28;20076;-74
2022/03/14 07:36:43;;;;;;;5.72;1.05;;;;;;;8.96;78.37;99713.56;5000921;28;20015;-74
2022/03/14 07:39:08;;;;;;;3.88;0.82;;;;;;;10.16;73.69;99696.38;4984459;28;20034;-74
2022/03/14 07:41:34;;;;;;;7.75;1.00;;;;;;;13.57;60.70;99709.47;5002062;28;20081;-70
2022/03/14 07:44:02;;;;;;;4.95;0.98;;;;;;;13.73;58.34;99709.16;5005603;28;20034;-74
2022/03/14 07:46:28;;;;;;;4.55;0.85;;;;;;;12.23;60.90;99720.22;4989735;28;20553;-72
2022/03/14 07:48:54;;;;;;;4.95;0.90;;;;;;;10.17;68.55;99714.31;4994262;28;20026;-72
2022/03/14 07:51:19;;;;;;;6.38;1.35;;;;;;;9.75;71.80;99715.56;4999819;28;20071;-72
2022/03/14 07:53:44;;;;;;;6.47;1.08;;;;;;;11.23;66.93;99753.25;5001317;28;20029;-71
2022/03/14 07:56:11;;;;;;;4.82;0.85;;;;;;;12.33;62.09;99712.63;4980063;28;20080;-72
2022/03/14 07:58:37;;;;;;;2.97;1.27;;;;;;;11.32;63.20;99760.28;5006998;28;20037;-71
2022/03/14 08:01:02;;;;;;;6.82;1.02;;;;;;;12.05;61.66;99740.50;4990695;28;20022;-73
2022/03/14 08:03:27;;;;;;;6.45;1.00;;;;;;;10.81;63.63;99770.88;4994799;28;20046;-71
2022/03/14 08:05:56;;;;;;;4.57;1.02;;;;;;;10.52;65.79;99775.16;5004274;28;20064;-72
2022/03/14 08:08:21;;;;;;;7.82;1.33;;;;;;;10.39;67.34;99769.47;5006732;28;20033;-74
2022/03/14 08:10:47;;;;;;;4.03;0.90;;;;;;;10.72;66.02;99789.91;4992616;28;20028;-72
2022/03/14 08:13:12;;;;;;;8.20;1.20;;;;;;;10.55;67.19;99784.75;4994306;28;20026;-75
2022/03/14 08:15:38;;;;;;;3.80;0.73;;;;;;;10.07;67.73;99779.44;4994691;28;20030;-76
2022/03/14 08:18:06;;;;;;;3.08;0.80;;;;;;;10.15;68.29;99778.53;5008622;28;20044;-77
2022/03/14 08:20:32;;;;;;;5.90;1.15;;;;;;;10.19;68.16;99804.19;4994387;28;20367;-77
2022/03/14 08:22:59;;;;;;;5.60;1.02;;;;;;;10.06;68.23;99799.34;5010564;28;20034;-74
2022/03/14 08:25:25;;;;;;;5.65;1.00;;;;;;;9.77;68.52;99805.38;4999036;28;20026;-76
2022/03/14 08:27:51;;;;;;;4.53;0.90;;;;;;;9.94;68.87;99796.19;4994929;28;20101;-75
2022/03/14 08:30:18;;;;;;;4.60;0.65;;;;;;;9.97;68.59;99795.84;4997296;28;20025;-76
2022/03/14 08:32:44;;;;;;;6.78;1.00;;;;;;;9.58;68.27;99802.03;5007049;28;20021;-70
2022/03/14 08:35:10;;;;;;;5.05;0.95;;;;;;;9.63;69.02;99817.75;5010586;28;20101;-72
2022/03/14 08:37:38;;;;;;;5.25;1.98;;;;;;;9.70;68.74;99810.66;5003306;28;20076;-74
2022/03/14 08:40:06;;;;;;;5.43;1.30;;;;;;;9.58;70.02;99810.16;4994154;28;20470;-72
2022/03/14 08:42:31;;;;;;;6.18;1.33;;;;;;;10.14;67.70;99796.63;4994176;28;20034;-70
2022/03/14 08:44:57;;;;;;;5.25;0.90;;;;;;;10.34;66.19;99812.44;4996540;28;20037;-73
2022/03/14 08:47:23;;;;;;;4.30;0.90;;;;;;;10.48;65.50;99809.84;4991212;28;20025;-75
2022/03/14 08:49:49;;;;;;;5.75;0.93;;;;;;;12.87;58.44;99815.31;4997908;28;20103;-70
2022/03/14 08:52:14;;;;;;;5.47;1.00;;;;;;;15.75;50.39;99816.44;4997838;28;20022;-70
2022/03/14 08:54:39;;;;;;;4.38;0.85;;;;;;;16.94;46.52;99808.84;5023893;28;20009;-73
2022/03/14 08:57:05;;;;;;;5.97;1.00;;;;;;;16.46;47.47;99817.50;5011840;28;20691;-73
2022/03/14 08:59:30;;;;;;;4.30;0.90;;;;;;;15.84;48.32;99814.31;5022858;28;20041;-73
2022/03/14 09:01:55;;;;;;;2.97;0.98;;;;;;;14.70;49.84;99832.47;5024588;28;20037;-71
2022/03/14 09:04:21;;;;;;;4.93;1.10;;;;;;;15.81;49.07;99831.94;5015726;28;20026;-73
2022/03/14 09:06:46;;;;;;;5.47;1.63;;;;;;;16.53;46.90;99796.44;5016103;28;20022;-72
2022/03/14 09:09:12;;;;;;;3.60;1.08;;;;;;;16.12;45.35;99817.59;5036198;28;20017;-73
2022/03/14 09:11:38;;;;;;;3.15;1.10;;;;;;;16.73;44.02;99816.28;5034396;28;20036;-74
2022/03/14 09:14:03;;;;;;;6.50;0.98;;;;;;;16.43;45.46;99824.22;5028328;28;20014;-73
2022/03/14 09:16:30;;;;;;;3.05;1.10;;;;;;;15.78;46.34;99810.56;5029084;28;20034;-74
2022/03/14 09:18:55;;;;;;;5.55;1.23;;;;;;;15.24;47.28;99809.69;5029232;28;20018;-72
2022/03/14 09:21:21;;;;;;;3.17;1.17;;;;;;;15.05;47.22;99833.16;5035665;28;20022;-76
2022/03/14 09:23:47;;;;;;;4.88;1.70;;;;;;;13.68;50.88;99820.41;5019725;28;20117;-70
2022/03/14 09:26:12;;;;;;;11.20;4.18;;;;;;;13.01;53.46;99818.16;5029029;28;20041;-74
2022/03/14 09:28:40;;;;;;;21.80;8.43;;;;;;;12.28;54.81;99834.44;5012793;28;20477;-77
2022/03/14 09:31:05;;;;;;;8.43;2.97;;;;;;;12.46;54.98;99815.88;4988948;28;20045;-70
2022/03/14 09:33:31;;;;;;;4.18;1.42;;;;;;;14.54;49.94;99808.31;5007786;28;20615;-72
2022/03/14 09:35:56;;;;;;;4.85;1.38;;;;;;;18.16;42.28;99812.00;4999534;28;20073;-70
2022/03/14 09:38:22;;;;;;;4.15;0.70;;;;;;;18.95;39.52;99812.91;5012050;28;20098;-77
2022/03/14 09:40:50;;;;;;;5.65;1.40;;;;;;;19.03;38.98;99825.44;5005406;28;20030;-72
2022/03/14 09:43:17;;;;;;;8.23;1.58;;;;;;;21.05;36.28;99823.16;5012746;28;20026;-74
2022/03/14 09:45:48;;;;;;;3.25;0.98;;;;;;;21.13;34.22;99822.75;5009176;28;20026;-70
2022/03/14 09:48:15;;;;;;;5.35;1.00;;;;;;;22.30;32.01;99817.47;4994868;28;20026;-74
2022/03/14 09:50:44;;;;;;;9.05;1.95;;;;;;;20.45;33.30;99818.09;5004388;28;20026;-73
2022/03/14 09:53:11;;;;;;;6.28;1.40;;;;;;;21.89;31.13;99816.84;5000125;28;20068;-73
2022/03/14 09:55:44;;;;;;;3.97;0.95;;;;;;;19.33;34.58;99828.13;5012307;28;20494;-73
2022/03/14 09:58:10;;;;;;;3.45;0.80;;;;;;;21.92;30.73;99821.84;4994540;28;20033;-73
2022/03/14 10:00:36;;;;;;;4.47;1.48;;;;;;;22.47;28.94;99804.44;4999909;28;20512;-73
2022/03/14 10:03:03;;;;;;;4.10;1.40;;;;;;;21.96;29.99;99834.06;5016590;28;20030;-72
2022/03/14 10:05:29;;;;;;;6.85;1.63;;;;;;;22.63;29.53;99837.72;4996497;28;20129;-72
2022/03/14 10:07:54;;;;;;;6.05;1.45;;;;;;;23.52;28.16;99833.69;5002091;28;20054;-73
2022/03/14 10:10:19;;;;;;;4.15;0.88;;;;;;;24.98;26.13;99847.00;4993288;28;20486;-72
2022/03/14 10:12:52;;;;;;;4.43;0.63;;;;;;;22.64;27.53;99828.38;4997747;28;20031;-78
2022/03/14 10:15:18;;;;;;;5.95;1.92;;;;;;;23.27;27.94;99832.38;5010946;28;20101;-79
2022/03/14 10:17:43;;;;;;;7.32;2.05;;;;;;;23.64;27.63;99839.88;4996960;28;20112;-71
2022/03/14 10:20:09;;;;;;;6.05;1.52;;;;;;;23.52;27.97;99836.44;5000886;28;20030;-78
2022/03/14 10:22:38;;;;;;;4.32;0.82;;;;;;;21.19;29.54;99830.00;5014787;23;20046;-72
2022/03/14 10:25:14;;;;;;;3.75;0.80;;;;;;;21.04;30.11;99854.50;5016891;28;20026;-73
2022/03/14 10:27:45;;;;;;;3.55;1.00;;;;;;;21.75;30.28;99848.59;5010590;28;20050;-77
2022/03/14 10:30:33;;;;;;;8.65;2.60;;;;;;;17.37;34.42;99857.34;5008439;28;20053;-75
2022/03/14 10:33:08;;;;;;;7.32;2.95;;;;;;;19.22;32.76;99853.63;5019404;28;20131;-74
2022/03/14 10:35:35;;;;;;;4.10;0.98;;;;;;;20.16;32.24;99853.75;4999140;28;20102;-74
2022/03/14 10:38:04;;;;;;;6.57;0.80;;;;;;;19.16;32.28;99849.94;4991772;28;20076;-69
2022/03/14 10:40:32;;;;;;;2.60;0.57;;;;;;;19.33;32.36;99854.72;4995609;28;20034;-68
2022/03/14 10:42:57;;;;;;;3.13;0.60;;;;;;;20.42;30.83;99824.09;4990888;28;20433;-69
2022/03/14 10:45:23;;;;;;;4.10;0.80;;;;;;;21.31;29.67;99821.69;4995446;28;20022;-69
2022/03/14 10:47:54;;;;;;;3.42;0.85;;;;;;;20.89;29.80;99843.22;4988539;28;20057;-68
2022/03/14 10:50:30;;;;;;;4.65;0.90;;;;;;;22.07;28.58;99843.28;4988714;28;20078;-68
2022/03/14 10:53:10;;;;;;;2.88;1.10;;;;;;;21.94;28.99;99847.25;4997012;28;20026;-69
2022/03/14 10:55:45;;;;;;;3.65;0.70;;;;;;;20.09;29.70;99858.53;4981785;28;20022;-69
2022/03/14 10:58:25;;;;;;;2.75;0.77;;;;;;;22.06;29.03;99850.75;4991811;28;20026;-70
2022/03/14 11:00:58;;;;;;;4.75;1.20;;;;;;;22.72;28.50;99848.03;4991228;28;20069;-70
2022/03/14 11:03:23;;;;;;;4.35;0.93;;;;;;;23.34;27.45;99857.00;4989515;28;20109;-70
2022/03/14 11:05:49;;;;;;;5.28;0.80;;;;;;;24.58;27.49;99857.66;4995365;28;20057;-70
2022/03/14 11:08:47;;;;;;;2.67;0.70;;;;;;;23.27;27.62;99848.94;4998259;28;20022;-70
2022/03/14 11:11:17;;;;;;;5.45;0.95;;;;;;;20.96;30.04;99866.75;4987646;28;20038;-69
2022/03/14 11:13:48;;;;;;;3.90;0.88;;;;;;;20.03;30.89;99863.06;4990649;28;20098;-69
2022/03/14 11:16:25;;;;;;;3.85;1.00;;;;;;;21.46;29.94;99851.44;5003503;28;20394;-69
2022/03/14 11:18:51;;;;;;;3.72;0.70;;;;;;;21.22;30.60;99851.53;4999244;28;20034;-69
2022/03/14 11:21:19;;;;;;;4.45;0.90;;;;;;;21.29;31.02;99847.78;5001829;28;20038;-69
2022/03/14 11:23:45;;;;;;;4.05;0.60;;;;;;;21.26;29.89;99829.03;4999249;28;20026;-70
2022/03/14 11:26:13;;;;;;;4.25;0.70;;;;;;;21.28;30.58;99844.22;4993694;28;20030;-70
2022/03/14 11:28:41;;;;;;;3.33;0.60;;;;;;;20.71;30.17;99841.47;5007619;28;20125;-71
2022/03/14 11:31:07;;;;;;;3.08;0.60;;;;;;;19.66;32.22;99848.72;4990933;28;20054;-71